Time;durP1;ratioP1;P1;durP2;ratioP2;P2;SDS_P1;SDS_P2;PMS_P1;PMS_P2;Temp;Humidity;BMP_temperature;BMP_pressure;BME280_temperature;BME280_humidity;BME280_pressure;Samples;Min_cycle;Max_cycle;Signal;HPM_P1;HPM_P2
2022/12/20 00:01:38;;;;;;;3.35;3.10;;;;;;;-0.05;79.83;101006.97;4469137;32;33418;-71
2022/12/20 00:04:06;;;;;;;5.10;4.68;;;;;;;0.16;79.18;101005.66;4469383;32;34776;-71
2022/12/20 00:06:34;;;;;;;1.10;1.10;;;;;;;-0.13;80.11;101018.41;4469111;32;35575;-70
2022/12/20 00:09:05;;;;;;;1.10;1.10;;;;;;;0.23;78.23;101024.81;4469056;32;34549;-71
2022/12/20 00:11:34;;;;;;;1.37;1.37;;;;;;;0.20;79.07;101031.44;4470882;32;33301;-70
2022/12/20 00:14:02;;;;;;;3.20;2.92;;;;;;;0.12;79.00;101023.28;4471311;32;34902;-70
2022/12/20 00:16:30;;;;;;;2.08;1.92;;;;;;;0.49;77.08;101022.84;4471155;32;35096;-70
2022/12/20 00:19:00;;;;;;;2.10;1.90;;;;;;;0.56;76.46;101022.41;4471186;32;35174;-71
2022/12/20 00:21:29;;;;;;;2.12;2.03;;;;;;;0.42;77.42;101031.00;4471209;32;33728;-70
2022/12/20 00:23:57;;;;;;;0.80;0.80;;;;;;;0.31;77.41;101031.25;4471147;32;33970;-70
2022/12/20 00:26:29;;;;;;;0.70;0.70;;;;;;;0.61;76.48;101022.69;4470936;32;35100;-70
2022/12/20 00:28:58;;;;;;;1.25;1.25;;;;;;;0.31;77.14;101022.69;4471140;32;34600;-70
2022/12/20 00:31:28;;;;;;;1.15;1.15;;;;;;;0.07;78.48;101002.56;4457549;32;32617;-70
2022/12/20 00:33:58;;;;;;;1.85;1.67;;;;;;;0.07;78.24;101000.00;4457152;32;34109;-70
2022/12/20 00:36:29;;;;;;;2.50;1.60;;;;;;;-0.15;78.79;100999.53;4471246;32;35499;-69
2022/12/20 00:38:59;;;;;;;1.48;1.37;;;;;;;0.20;77.99;100998.16;4457232;32;34459;-70
2022/12/20 00:41:29;;;;;;;4.32;2.55;;;;;;;0.15;77.83;101011.53;4471339;32;33357;-70
2022/12/20 00:43:58;;;;;;;4.53;4.07;;;;;;;0.17;77.65;101004.84;4471375;32;34700;-71
2022/12/20 00:46:26;;;;;;;2.83;2.70;;;;;;;0.34;77.49;101002.38;4457213;32;35011;-70
2022/12/20 00:48:55;;;;;;;3.58;3.33;;;;;;;0.55;77.08;100998.47;4471042;32;34509;-70
2022/12/20 00:51:27;;;;;;;2.80;2.30;;;;;;;0.56;76.43;100990.00;4444541;32;34291;-71
2022/12/20 00:53:55;;;;;;;1.10;1.10;;;;;;;-0.23;79.83;100983.69;4457011;32;34840;-70
2022/12/20 00:56:24;;;;;;;1.77;1.67;;;;;;;-0.03;79.60;100975.50;4470869;32;36096;-71
2022/12/20 00:58:57;;;;;;;1.40;1.40;;;;;;;0.09;79.15;100964.19;4471020;32;35472;-70
2022/12/20 01:01:29;;;;;;;6.32;1.80;;;;;;;0.33;77.99;100960.47;4470870;32;33416;-71
2022/12/20 01:03:58;;;;;;;0.90;0.90;;;;;;;0.31;77.74;100976.56;4457135;32;34720;-71
2022/12/20 01:06:27;;;;;;;1.12;1.12;;;;;;;0.31;77.44;100976.56;4470870;32;35874;-70
2022/12/20 01:08:55;;;;;;;1.23;1.08;;;;;;;0.40;76.83;100977.09;4471144;32;34610;-70
2022/12/20 01:11:42;;;;;;;1.45;1.42;;;;;;;0.03;77.79;100974.97;4470916;32;33600;-71
2022/12/20 01:14:14;;;;;;;0.80;0.80;;;;;;;0.50;77.62;100968.25;4470860;32;34881;-71
2022/12/20 01:16:44;;;;;;;0.80;0.80;;;;;;;0.34;76.96;100962.25;4470649;32;35120;-71
2022/12/20 01:19:16;;;;;;;1.60;1.50;;;;;;;0.48;76.40;100964.72;4471063;32;34239;-71
2022/12/20 01:21:44;;;;;;;1.10;1.10;;;;;;;0.55;76.32;100965.13;4456826;32;32676;-70
2022/12/20 01:24:14;;;;;;;1.73;1.62;;;;;;;0.37;76.36;100975.25;4470761;32;34105;-71
2022/12/20 01:26:42;;;;;;;1.17;1.15;;;;;;;-0.35;79.38;100978.75;4470673;32;35157;-70
2022/12/20 01:29:10;;;;;;;1.67;1.60;;;;;;;-0.05;78.59;100976.22;4470660;32;34409;-71
2022/12/20 01:31:39;;;;;;;2.95;2.75;;;;;;;0.28;77.64;100972.16;4470803;32;33444;-71
2022/12/20 01:34:07;;;;;;;0.88;0.88;;;;;;;0.08;77.81;100959.88;4470643;32;33835;-70
2022/12/20 01:36:38;;;;;;;1.45;1.40;;;;;;;-0.39;79.98;100940.94;4470622;32;35760;-70
2022/12/20 01:39:10;;;;;;;1.73;1.62;;;;;;;0.23;78.04;100941.94;4470685;32;34548;-70
2022/12/20 01:41:39;;;;;;;1.23;1.23;;;;;;;0.06;77.61;100936.75;4456980;32;33949;-71
2022/12/20 01:44:16;;;;;;;2.15;2.05;;;;;;;-0.05;78.39;100935.25;4470625;32;34785;-70
2022/12/20 01:46:46;;;;;;;3.75;3.12;;;;;;;0.32;76.55;100932.22;4470642;32;35938;-69
2022/12/20 01:49:20;;;;;;;6.85;3.15;;;;;;;0.45;75.96;100913.28;4470880;32;34612;-70
2022/12/20 01:51:59;;;;;;;2.85;2.65;;;;;;;0.24;75.95;100924.09;4470588;32;34333;-71
2022/12/20 01:54:54;;;;;;;1.08;1.08;;;;;;;0.26;75.95;100916.50;4456715;32;34830;-71
2022/12/20 01:57:26;;;;;;;1.35;1.35;;;;;;;-0.25;77.17;100909.41;4470743;32;35851;-70
2022/12/20 01:59:55;;;;;;;1.60;1.50;;;;;;;-0.26;78.86;100899.06;4456586;32;34522;-70
2022/12/20 02:02:23;;;;;;;1.92;1.83;;;;;;;-0.06;77.53;100902.75;4470404;32;34418;-70
2022/12/20 02:04:51;;;;;;;7.15;3.45;;;;;;;-0.30;78.21;100903.12;4456676;32;34026;-71
2022/12/20 02:07:25;;;;;;;1.42;1.40;;;;;;;0.09;76.81;100887.38;4470480;32;35034;-70
2022/12/20 02:09:55;;;;;;;0.82;0.82;;;;;;;0.14;76.13;100891.06;4456593;32;34576;-70
2022/12/20 02:12:25;;;;;;;1.10;1.10;;;;;;;-0.46;79.10;100888.56;4456861;32;34341;-70
2022/12/20 02:15:14;;;;;;;1.08;1.08;;;;;;;-0.88;80.80;100890.31;4470745;32;33174;-71
2022/12/20 02:17:42;;;;;;;1.90;1.65;;;;;;;-0.62;80.06;100884.22;4456461;32;35965;-71
2022/12/20 02:20:37;;;;;;;1.42;1.42;;;;;;;-0.69;80.28;100881.19;4470405;32;34537;-70
2022/12/20 02:23:45;;;;;;;1.08;1.08;;;;;;;-0.68;80.17;100883.84;4470663;32;34355;-70
2022/12/20 02:26:38;;;;;;;1.10;1.10;;;;;;;-0.34;78.58;100885.81;4470456;32;34678;-71
2022/12/20 02:29:29;;;;;;;6.62;6.05;;;;;;;-0.47;79.75;100888.47;4470350;32;35039;-70
2022/12/20 02:32:17;;;;;;;1.05;1.05;;;;;;;-0.34;78.48;100893.47;4456573;32;35111;-70
2022/12/20 02:34:45;;;;;;;;;;;;;;;-0.05;78.22;100887.47;4470341;32;34361;-70
2022/12/20 02:37:14;;;;;;;4.20;3.08;;;;;;;-0.18;78.80;100886.69;4456318;32;34553;-71
2022/12/20 02:39:43;;;;;;;2.15;2.05;;;;;;;-0.35;79.21;100878.94;4470262;32;35071;-71
2022/12/20 02:42:16;;;;;;;2.22;2.08;;;;;;;0.01;76.66;100858.78;4470259;32;34094;-70
2022/12/20 02:48:06;;;;;;;2.37;2.22;;;;;;;-0.02;76.81;100873.97;4470258;32;34046;-70
2022/12/20 02:50:39;;;;;;;1.52;1.48;;;;;;;-0.47;79.01;100868.00;4470436;32;35981;-70
2022/12/20 02:53:08;;;;;;;1.90;1.85;;;;;;;0.31;76.29;100869.84;4456118;32;34561;-70
2022/12/20 02:55:55;;;;;;;1.55;1.45;;;;;;;-0.15;76.95;100861.28;4456363;32;33849;-71
2022/12/20 02:58:41;;;;;;;2.55;2.35;;;;;;;-0.80;80.59;100863.50;4470136;32;33775;-71
2022/12/20 03:01:18;;;;;;;1.75;1.70;;;;;;;-0.05;77.23;100848.19;4470009;32;35921;-70
2022/12/20 03:03:47;;;;;;;1.83;1.73;;;;;;;-0.57;79.51;100846.09;4469974;32;34551;-70
2022/12/20 03:06:16;;;;;;;1.75;1.65;;;;;;;-0.27;78.93;100841.84;4456165;32;33423;-70
2022/12/20 03:08:44;;;;;;;1.00;1.00;;;;;;;0.02;77.51;100845.19;4456313;32;33936;-71
2022/12/20 03:11:13;;;;;;;1.25;1.25;;;;;;;0.02;76.81;100840.06;4470190;32;35912;-70
2022/12/20 03:13:41;;;;;;;7.00;3.72;;;;;;;-0.01;76.97;100850.13;4470083;32;35257;-71
2022/12/20 03:16:09;;;;;;;6.60;3.15;;;;;;;0.23;75.77;100849.72;4469888;32;34137;-71
2022/12/20 03:18:38;;;;;;;2.58;2.15;;;;;;;0.13;76.63;100848.34;4469581;32;33874;-70
2022/12/20 03:21:06;;;;;;;1.62;1.52;;;;;;;-0.08;77.07;100854.00;4469745;32;35228;-71
2022/12/20 03:23:35;;;;;;;2.85;2.55;;;;;;;0.23;76.78;100844.59;4469741;32;35261;-70
2022/12/20 03:26:03;;;;;;;2.75;2.55;;;;;;;-0.21;77.88;100829.41;4469799;32;33166;-71
2022/12/20 03:28:32;;;;;;;2.87;2.70;;;;;;;-0.60;78.52;100831.47;4470031;32;33856;-71
2022/12/20 03:31:00;;;;;;;0.90;0.90;;;;;;;-0.07;77.65;100835.31;4469612;32;34625;-71
2022/12/20 03:33:29;;;;;;;0.80;0.80;;;;;;;-0.44;78.84;100848.56;4469851;32;34542;-71
2022/12/20 03:35:57;;;;;;;3.97;3.65;;;;;;;-0.21;77.75;100849.88;4469713;32;34388;-70
2022/12/20 03:38:26;;;;;;;2.28;2.17;;;;;;;-0.14;77.77;100838.31;4469679;32;34700;-71
2022/12/20 03:40:54;;;;;;;1.23;1.23;;;;;;;0.06;77.15;100842.00;4469465;32;35903;-70
2022/12/20 03:43:22;;;;;;;3.12;2.35;;;;;;;0.11;76.32;100843.13;4469691;32;35414;-70
2022/12/20 03:45:50;;;;;;;4.37;3.80;;;;;;;0.06;76.83;100849.69;4470570;32;33713;-71
2022/12/20 03:48:18;;;;;;;2.12;2.03;;;;;;;-0.18;77.02;100858.53;4471488;32;34847;-70
2022/12/20 03:50:47;;;;;;;0.80;0.80;;;;;;;-0.14;77.31;100857.91;4457440;32;35083;-70
2022/12/20 03:53:15;;;;;;;1.80;1.70;;;;;;;0.13;76.87;100849.22;4471249;32;34523;-70
2022/12/20 03:55:43;;;;;;;1.00;1.00;;;;;;;0.53;74.69;100846.28;4471650;32;34128;-71
2022/12/20 03:58:13;;;;;;;2.25;2.15;;;;;;;-0.32;77.62;100835.56;4471590;32;33924;-71
2022/12/20 04:00:41;;;;;;;4.47;2.35;;;;;;;-0.03;76.42;100832.12;4471634;32;35071;-71
2022/12/20 04:03:11;;;;;;;1.42;1.42;;;;;;;-0.07;76.50;100832.75;4471349;32;34664;-70
2022/12/20 04:05:40;;;;;;;4.43;4.22;;;;;;;0.20;75.86;100836.75;4471327;32;34209;-71
2022/12/20 04:08:07;;;;;;;1.00;1.00;;;;;;;0.41;75.13;100830.25;4471284;32;33999;-71
2022/12/20 04:11:14;;;;;;;1.80;1.70;;;;;;;-0.79;78.66;100816.69;4471476;32;35047;-70
2022/12/20 04:13:24;;;;;;;4.12;3.83;;;;;;;-0.31;77.71;100806.63;4471538;32;34488;-71
2022/12/20 04:15:53;;;;;;;0.93;0.93;;;;;;;-0.57;78.31;100807.72;4471261;32;34307;-70
2022/12/20 04:18:28;;;;;;;1.15;1.15;;;;;;;-0.53;79.56;100791.75;4471112;32;34700;-70
2022/12/20 04:20:59;;;;;;;1.10;1.10;;;;;;;-0.67;80.14;100790.97;4471171;32;35068;-71
2022/12/20 04:23:28;;;;;;;6.22;4.32;;;;;;;-0.53;80.09;100790.84;4471517;32;33694;-70
2022/12/20 04:25:56;;;;;;;1.15;1.12;;;;;;;-0.36;79.30;100785.03;4470938;32;34280;-70
2022/12/20 04:28:24;;;;;;;1.70;1.60;;;;;;;-0.29;78.39;100789.69;4471154;32;33921;-71
2022/12/20 04:30:53;;;;;;;4.37;3.53;;;;;;;-0.29;78.36;100782.00;4457427;32;34943;-71
2022/12/20 04:33:22;;;;;;;1.45;1.35;;;;;;;-0.42;78.92;100774.47;4471315;32;34409;-71
2022/12/20 04:35:50;;;;;;;0.93;0.93;;;;;;;-0.32;78.67;100771.59;4457296;32;33315;-71
2022/12/20 04:38:21;;;;;;;2.87;2.25;;;;;;;-0.29;79.32;100773.47;4471273;32;34873;-71
2022/12/20 04:40:51;;;;;;;1.65;1.55;;;;;;;0.00;77.33;100780.22;4471258;32;35790;-70
2022/12/20 04:43:20;;;;;;;1.25;1.23;;;;;;;-0.39;78.18;100779.72;4470966;32;35303;-70
2022/12/20 04:45:51;;;;;;;1.75;1.65;;;;;;;-0.70;79.48;100784.78;4471010;32;34228;-71
2022/12/20 04:48:21;;;;;;;2.03;1.92;;;;;;;-0.10;78.02;100788.16;4471324;32;33960;-71
2022/12/20 04:51:10;;;;;;;1.52;1.42;;;;;;;-0.30;78.29;100787.94;4471395;32;35045;-70
2022/12/20 04:53:48;;;;;;;5.25;4.93;;;;;;;-0.23;78.32;100807.06;4471124;32;35182;-70
2022/12/20 04:56:25;;;;;;;13.40;12.30;;;;;;;-0.28;77.91;100800.81;4470780;32;34266;-71
2022/12/20 04:58:56;;;;;;;2.35;2.15;;;;;;;0.01;77.02;100797.31;4471076;32;34728;-70
2022/12/20 05:01:25;;;;;;;0.80;0.80;;;;;;;0.00;76.71;100805.81;4471263;32;34306;-70
2022/12/20 05:03:54;;;;;;;1.52;1.42;;;;;;;0.56;75.01;100819.91;4471135;32;35280;-70
2022/12/20 05:06:22;;;;;;;1.67;1.58;;;;;;;-0.04;77.14;100804.72;4471050;32;33435;-70
2022/12/20 05:08:53;;;;;;;2.87;2.55;;;;;;;-0.09;77.29;100806.19;4451533;32;34797;-68
2022/12/20 05:11:24;;;;;;;2.03;1.90;;;;;;;0.17;76.57;100805.03;4467870;32;34620;-69
2022/12/20 05:13:52;;;;;;;1.37;1.37;;;;;;;0.00;76.67;100818.62;4460060;32;35053;-68
2022/12/20 05:16:20;;;;;;;1.05;1.05;;;;;;;0.04;76.69;100812.84;4462085;32;33331;-68
2022/12/20 05:18:50;;;;;;;1.87;1.80;;;;;;;0.18;76.02;100822.19;4465855;32;33777;-69
2022/12/20 05:26:53;;;;;;;0.90;0.90;;;;;;;0.09;76.51;100823.34;4466405;32;33640;-70
2022/12/20 05:29:21;;;;;;;2.37;2.28;;;;;;;0.48;75.23;100821.22;4457476;32;34871;-69
2022/12/20 05:31:49;;;;;;;2.55;2.45;;;;;;;0.41;74.77;100822.56;4455972;32;33543;-69
2022/12/20 05:34:18;;;;;;;2.62;2.42;;;;;;;0.11;76.21;100825.19;4470220;32;34600;-69
2022/12/20 05:36:47;;;;;;;1.12;1.12;;;;;;;0.23;75.52;100818.97;4459291;32;33560;-69
2022/12/20 05:39:15;;;;;;;1.27;1.27;;;;;;;0.44;75.18;100816.69;4454953;32;33994;-72
2022/12/20 05:41:44;;;;;;;0.80;0.80;;;;;;;0.35;74.55;100819.66;4455310;32;35089;-72
2022/12/20 05:44:13;;;;;;;1.92;1.77;;;;;;;0.32;75.02;100817.81;4455707;32;34486;-72
2022/12/20 05:46:41;;;;;;;2.05;1.95;;;;;;;0.40;75.14;100813.09;4453648;32;34332;-71
2022/12/20 05:49:10;;;;;;;0.90;0.90;;;;;;;0.23;75.56;100807.06;4454674;32;33543;-71
2022/12/20 05:51:38;;;;;;;0.88;0.85;;;;;;;0.22;75.10;100817.22;4454984;32;35109;-72
2022/12/20 05:54:08;;;;;;;1.02;1.02;;;;;;;0.13;75.53;100800.56;4453872;32;34443;-70
2022/12/20 05:56:37;;;;;;;1.33;1.23;;;;;;;0.27;75.21;100795.31;4455253;32;33508;-72
2022/12/20 05:59:05;;;;;;;0.82;0.80;;;;;;;0.38;74.78;100799.31;4455121;32;34630;-70
2022/12/20 06:01:35;;;;;;;1.70;1.60;;;;;;;0.16;74.99;100795.59;4455182;32;36087;-72
2022/12/20 06:04:04;;;;;;;2.10;1.40;;;;;;;0.24;75.11;100795.12;4455302;32;34366;-72
2022/12/20 06:06:33;;;;;;;0.93;0.93;;;;;;;0.17;75.04;100784.53;4455146;32;33501;-70
2022/12/20 06:09:00;;;;;;;1.48;1.42;;;;;;;0.29;74.59;100791.16;4457750;32;34873;-68
2022/12/20 06:11:30;;;;;;;0.70;0.70;;;;;;;0.09;74.98;100784.91;4461094;32;34995;-70
2022/12/20 06:13:58;;;;;;;1.33;1.23;;;;;;;0.14;74.64;100783.50;4465917;32;35233;-69
2022/12/20 06:16:27;;;;;;;1.75;1.70;;;;;;;0.26;74.88;100776.47;4457265;32;33697;-69
2022/12/20 06:18:56;;;;;;;3.05;2.85;;;;;;;0.02;75.65;100778.59;4464674;32;34119;-69
2022/12/20 06:21:24;;;;;;;1.35;1.33;;;;;;;0.12;75.34;100780.84;4462424;32;35357;-69
2022/12/20 06:23:52;;;;;;;0.85;0.85;;;;;;;-0.08;75.68;100773.78;4458584;32;35132;-72
2022/12/20 06:26:23;;;;;;;71.80;9.00;;;;;;;-0.22;76.51;100771.31;4453137;32;34264;-69
2022/12/20 06:28:55;;;;;;;1.20;1.20;;;;;;;-0.19;76.44;100778.31;4454391;32;34703;-71
2022/12/20 06:31:24;;;;;;;0.88;0.88;;;;;;;-0.18;76.22;100779.19;4454528;32;35068;-69
2022/12/20 06:33:53;;;;;;;1.70;1.60;;;;;;;0.02;75.99;100773.50;4454264;32;34471;-70
2022/12/20 06:36:21;;;;;;;1.92;1.83;;;;;;;-0.30;76.37;100777.72;4454386;32;33508;-71
2022/12/20 06:38:50;;;;;;;0.90;0.90;;;;;;;0.04;75.62;100778.69;4454257;32;33820;-70
2022/12/20 06:41:19;;;;;;;0.95;0.95;;;;;;;-0.08;75.95;100773.78;4453160;32;35540;-70
2022/12/20 06:43:47;;;;;;;1.55;1.45;;;;;;;0.06;75.27;100762.59;4454406;32;34467;-69
2022/12/20 06:46:16;;;;;;;1.12;1.08;;;;;;;-0.06;75.68;100760.25;4454299;32;34232;-70
2022/12/20 06:48:44;;;;;;;0.90;0.90;;;;;;;-0.35;75.89;100766.31;4452946;32;33912;-71
2022/12/20 06:51:12;;;;;;;2.97;2.83;;;;;;;-0.12;76.47;100766.72;4454382;32;35975;-69
2022/12/20 06:53:41;;;;;;;0.80;0.80;;;;;;;-0.44;77.27;100753.00;4454195;32;34003;-69
2022/12/20 06:56:09;;;;;;;2.45;2.35;;;;;;;-0.04;75.96;100753.53;4454147;32;33489;-69
2022/12/20 06:58:37;;;;;;;0.80;0.80;;;;;;;0.25;75.40;100755.91;4453875;32;33997;-69
2022/12/20 07:01:06;;;;;;;0.77;0.77;;;;;;;0.11;75.83;100753.50;4452965;32;35045;-70
2022/12/20 07:03:34;;;;;;;0.80;0.80;;;;;;;-0.01;76.14;100747.69;4453626;32;34550;-69
2022/12/20 07:06:02;;;;;;;0.93;0.93;;;;;;;0.02;76.60;100746.97;4453931;32;33738;-69
2022/12/20 07:08:30;;;;;;;0.90;0.90;;;;;;;-0.22;76.41;100744.84;4453571;32;34808;-69
2022/12/20 07:11:06;;;;;;;1.00;1.00;;;;;;;-0.14;77.45;100743.59;4453856;32;35004;-68
2022/12/20 07:13:34;;;;;;;0.80;0.80;;;;;;;0.07;76.20;100746.44;4453620;32;34500;-69
2022/12/20 07:16:03;;;;;;;0.77;0.77;;;;;;;0.07;76.42;100741.31;4453758;32;33457;-68
2022/12/20 07:18:32;;;;;;;0.80;0.80;;;;;;;0.05;76.36;100737.78;4453173;32;34722;-69
2022/12/20 07:21:01;;;;;;;1.30;1.27;;;;;;;-0.15;77.01;100743.50;4453796;32;35915;-71
2022/12/20 07:23:30;;;;;;;0.80;0.80;;;;;;;-0.37;77.79;100738.87;4453444;32;34510;-69
2022/12/20 07:25:59;;;;;;;1.87;1.73;;;;;;;-0.22;78.25;100753.41;4452298;32;33447;-70
2022/12/20 07:28:28;;;;;;;2.10;1.80;;;;;;;0.44;75.20;100768.91;4453267;32;33791;-71
2022/12/20 07:31:00;;;;;;;0.90;0.90;;;;;;;-0.15;76.87;100753.75;4453487;32;35108;-70
2022/12/20 07:33:29;;;;;;;6.53;6.10;;;;;;;0.02;77.42;100758.13;4452170;32;34626;-68
2022/12/20 07:36:05;;;;;;;0.90;0.90;;;;;;;0.50;75.44;100761.53;4453695;32;34126;-69
2022/12/20 07:38:34;;;;;;;1.00;1.00;;;;;;;0.30;75.94;100774.97;4452113;32;33939;-70
2022/12/20 07:41:11;;;;;;;1.85;1.77;;;;;;;0.13;76.05;100767.25;4453287;32;35904;-69
2022/12/20 07:43:40;;;;;;;3.62;3.42;;;;;;;0.48;74.48;100760.56;4453178;32;34541;-69
2022/12/20 07:46:10;;;;;;;3.28;2.97;;;;;;;0.65;73.66;100752.88;4453202;32;34293;-69
2022/12/20 07:48:38;;;;;;;1.42;1.37;;;;;;;0.93;73.19;100753.47;4453337;32;33197;-70
2022/12/20 07:51:23;;;;;;;1.55;1.45;;;;;;;0.95;72.86;100751.00;4453298;32;35867;-69
2022/12/20 07:54:33;;;;;;;0.80;0.80;;;;;;;0.64;73.53;100749.44;4453166;32;34450;-68
2022/12/20 07:57:05;;;;;;;0.88;0.88;;;;;;;0.53;73.41;100738.63;4380318;32;33658;-72
2022/12/20 07:59:39;;;;;;;1.70;1.60;;;;;;;0.82;72.14;100731.56;4380677;32;34669;-70
2022/12/20 08:02:14;;;;;;;1.05;1.05;;;;;;;0.85;72.69;100736.84;4407018;32;35036;-70
2022/12/20 08:04:43;;;;;;;3.30;2.45;;;;;;;1.09;72.44;100742.31;4453056;32;34446;-70
2022/12/20 08:07:12;;;;;;;0.90;0.90;;;;;;;1.24;71.50;100725.94;4451916;32;34206;-69
2022/12/20 08:09:43;;;;;;;1.25;1.25;;;;;;;1.31;70.86;100718.59;4452767;32;34388;-70
2022/12/20 08:12:13;;;;;;;1.77;1.73;;;;;;;1.22;70.63;100707.91;4452976;32;34496;-71
2022/12/20 08:14:41;;;;;;;0.90;0.90;;;;;;;1.65;69.10;100704.81;4452824;32;35228;-71
2022/12/20 08:17:10;;;;;;;1.65;1.48;;;;;;;1.06;70.95;100700.22;4451810;32;33552;-71
2022/12/20 08:19:39;;;;;;;0.77;0.77;;;;;;;1.08;70.64;100694.41;4452396;32;34862;-71
2022/12/20 08:22:07;;;;;;;3.17;2.92;;;;;;;0.85;71.91;100713.78;4452826;32;35848;-71
2022/12/20 08:24:35;;;;;;;2.92;2.67;;;;;;;0.98;71.75;100711.81;4452705;32;34137;-71
2022/12/20 08:27:04;;;;;;;4.10;1.98;;;;;;;1.10;71.20;100713.31;4459903;32;33527;-70
2022/12/20 08:29:32;;;;;;;0.90;0.90;;;;;;;0.80;72.13;100715.22;4461431;32;34749;-70
2022/12/20 08:32:00;;;;;;;1.65;1.55;;;;;;;1.30;71.07;100706.56;4457409;32;35995;-71
2022/12/20 08:34:30;;;;;;;2.80;2.15;;;;;;;1.63;69.81;100703.88;4470270;32;33840;-69
2022/12/20 08:36:58;;;;;;;0.80;0.80;;;;;;;1.60;69.38;100711.41;4469380;32;33280;-70
2022/12/20 08:39:26;;;;;;;3.30;2.65;;;;;;;2.13;68.74;100706.12;4470627;32;33902;-71
2022/12/20 08:41:55;;;;;;;1.70;1.60;;;;;;;2.72;66.08;100707.91;4470870;32;35064;-71
2022/12/20 08:44:23;;;;;;;1.58;1.55;;;;;;;3.12;64.67;100703.53;4470788;32;34408;-71
2022/12/20 08:46:55;;;;;;;1.98;1.33;;;;;;;3.27;62.66;100704.19;4470776;32;33689;-69
2022/12/20 08:49:31;;;;;;;0.98;0.98;;;;;;;4.06;61.37;100700.38;4470666;32;33909;-70
2022/12/20 08:51:59;;;;;;;4.25;3.47;;;;;;;4.72;59.30;100695.00;4456480;32;33870;-72
2022/12/20 08:54:28;;;;;;;3.42;2.53;;;;;;;4.83;57.98;100691.94;4471086;32;35166;-69
2022/12/20 08:56:56;;;;;;;1.35;1.35;;;;;;;4.69;58.03;100702.63;4470599;32;33593;-70
2022/12/20 08:59:25;;;;;;;0.60;0.60;;;;;;;5.62;55.04;100687.63;4470716;32;33914;-70
2022/12/20 09:01:53;;;;;;;1.70;1.62;;;;;;;4.92;56.27;100699.97;4470525;32;35120;-70
2022/12/20 09:04:22;;;;;;;2.28;1.92;;;;;;;5.22;55.36;100686.34;4470605;32;35188;-70
2022/12/20 09:06:50;;;;;;;1.65;1.50;;;;;;;5.37;55.04;100698.88;4470790;32;33397;-71
2022/12/20 09:09:18;;;;;;;1.27;1.23;;;;;;;4.80;55.79;100704.72;4470912;32;33989;-70
2022/12/20 09:11:46;;;;;;;4.15;3.25;;;;;;;5.02;56.30;100703.75;4470858;32;35135;-71
2022/12/20 09:14:14;;;;;;;6.37;4.10;;;;;;;5.81;53.84;100705.44;4470826;32;35076;-70
2022/12/20 09:16:42;;;;;;;1.58;1.48;;;;;;;4.90;55.14;100709.38;4470801;32;33549;-71
2022/12/20 09:19:12;;;;;;;2.05;1.95;;;;;;;5.00;55.22;100708.88;4470707;32;34013;-70
2022/12/20 09:21:40;;;;;;;0.93;0.93;;;;;;;4.88;56.34;100708.44;4456730;32;34916;-70
2022/12/20 09:24:10;;;;;;;2.17;2.08;;;;;;;4.70;55.84;100709.56;4456843;32;34623;-70
2022/12/20 09:26:39;;;;;;;1.15;1.15;;;;;;;4.42;56.49;100702.53;4462726;32;257830;-70
2022/12/20 09:29:07;;;;;;;1.25;1.25;;;;;;;3.72;58.89;100709.38;4470777;32;34190;-70
2022/12/20 09:31:38;;;;;;;1.92;1.83;;;;;;;3.68;59.94;100697.22;4470804;32;35446;-70
2022/12/20 09:34:06;;;;;;;0.93;0.93;;;;;;;3.81;58.98;100677.94;4470650;32;34694;-70
2022/12/20 09:36:35;;;;;;;0.75;0.75;;;;;;;3.27;60.96;100667.28;4470714;32;33643;-70
2022/12/20 09:39:04;;;;;;;0.90;0.90;;;;;;;3.42;61.01;100668.75;4470611;32;33925;-70
2022/12/20 09:41:41;;;;;;;2.33;2.22;;;;;;;3.10;60.91;100670.00;4470578;32;35245;-70
2022/12/20 09:44:21;;;;;;;0.88;0.88;;;;;;;3.59;60.11;100645.34;4470616;32;34448;-71
2022/12/20 09:46:55;;;;;;;1.10;1.10;;;;;;;3.87;59.32;100651.56;4470680;32;33541;-70
2022/12/20 09:49:29;;;;;;;0.70;0.70;;;;;;;4.72;57.41;100650.28;4457008;32;33935;-70
2022/12/20 09:52:16;;;;;;;1.85;1.75;;;;;;;5.80;53.75;100646.81;4456692;32;35809;-73
2022/12/20 09:55:22;;;;;;;3.15;2.65;;;;;;;6.83;50.80;100641.91;4470639;32;34345;-73
2022/12/20 09:57:56;;;;;;;0.80;0.80;;;;;;;6.90;50.53;100648.13;4470605;32;33572;-72
2022/12/20 10:00:25;;;;;;;1.27;1.17;;;;;;;6.73;51.42;100644.22;4470498;32;33913;-73
2022/12/20 10:02:55;;;;;;;0.85;0.85;;;;;;;6.78;50.83;100637.47;4456898;32;34200;-71
2022/12/20 10:05:45;;;;;;;2.33;2.20;;;;;;;6.84;50.26;100645.38;4458399;32;35282;-71
2022/12/20 10:08:56;;;;;;;2.25;2.15;;;;;;;7.86;47.64;100634.78;4456614;32;33183;-71
2022/12/20 10:11:37;;;;;;;1.85;1.75;;;;;;;7.26;48.31;100644.69;4456790;32;33921;-70
2022/12/20 10:14:29;;;;;;;0.60;0.60;;;;;;;7.45;47.97;100638.22;4457798;32;35895;-70
2022/12/20 10:17:03;;;;;;;1.80;1.70;;;;;;;7.31;48.15;100626.66;4456563;32;34567;-70
2022/12/20 10:20:18;;;;;;;0.57;0.57;;;;;;;6.90;49.70;100635.19;4470420;32;34245;-71
2022/12/20 10:23:14;;;;;;;1.05;1.05;;;;;;;6.20;50.86;100627.31;4457910;32;33949;-71
2022/12/20 10:25:44;;;;;;;1.65;1.23;;;;;;;6.64;50.62;100632.78;4456276;32;34953;-72
2022/12/20 10:28:16;;;;;;;1.62;1.55;;;;;;;6.09;51.19;100628.72;4457109;32;35246;-70
2022/12/20 10:30:44;;;;;;;1.15;1.10;;;;;;;5.71;52.54;100625.88;4456473;32;33478;-72
2022/12/20 10:33:22;;;;;;;3.40;1.67;;;;;;;5.33;53.11;100607.50;4470330;32;33930;-71
2022/12/20 10:35:51;;;;;;;4.70;2.62;;;;;;;5.82;52.61;100608.97;4456492;32;34916;-71
2022/12/20 10:38:19;;;;;;;1.40;1.37;;;;;;;5.46;53.38;100599.28;4470436;32;34480;-71
2022/12/20 10:41:00;;;;;;;1.05;1.05;;;;;;;5.97;52.82;100593.06;4470103;32;33528;-71
2022/12/20 10:43:55;;;;;;;0.93;0.93;;;;;;;6.90;51.05;100591.16;4470082;32;34858;-72
2022/12/20 10:46:34;;;;;;;0.90;0.90;;;;;;;7.33;49.35;100586.97;4456560;32;34987;-71
2022/12/20 10:49:29;;;;;;;0.60;0.60;;;;;;;7.68;47.59;100579.09;4456293;32;34556;-71
2022/12/20 10:52:10;;;;;;;0.70;0.70;;;;;;;8.16;47.49;100577.44;4456453;32;33549;-72
2022/12/20 10:54:43;;;;;;;1.83;1.80;;;;;;;7.98;46.61;100572.78;4456101;32;34748;-71
2022/12/20 10:57:21;;;;;;;1.85;1.70;;;;;;;8.38;45.96;100568.31;4464600;32;35831;-71
2022/12/20 11:00:01;;;;;;;1.48;1.40;;;;;;;7.95;46.70;100562.34;4456904;32;34466;-72
2022/12/20 11:02:37;;;;;;;3.75;2.80;;;;;;;9.16;45.25;100550.59;4470419;32;33274;-73
2022/12/20 11:05:09;;;;;;;2.25;2.05;;;;;;;10.04;43.35;100544.78;4456556;32;33927;-73
2022/12/20 11:08:17;;;;;;;2.83;2.62;;;;;;;9.81;42.46;100541.91;4467577;32;34957;-73
2022/12/20 11:11:27;;;;;;;2.97;2.78;;;;;;;9.07;43.65;100534.84;4466908;32;35388;-71
2022/12/20 11:14:37;;;;;;;2.85;2.58;;;;;;;7.69;46.73;100534.16;4459367;32;32421;-71
2022/12/20 11:17:45;;;;;;;1.67;1.58;;;;;;;7.11;49.02;100514.78;4459016;32;33908;-72
2022/12/20 11:20:26;;;;;;;1.45;1.37;;;;;;;6.99;48.87;100505.94;4450952;32;32973;-72
2022/12/20 11:23:43;;;;;;;1.05;1.05;;;;;;;6.82;49.46;100521.06;4459188;32;34467;-72
2022/12/20 11:26:29;;;;;;;2.15;1.95;;;;;;;7.12;49.50;100527.78;4396188;32;34320;-72
2022/12/20 11:29:23;;;;;;;1.65;1.58;;;;;;;7.22;48.93;100526.28;4397912;32;33760;-72
2022/12/20 11:32:13;;;;;;;1.30;1.30;;;;;;;7.16;49.36;100526.13;4426579;32;34943;-72
2022/12/20 11:34:56;;;;;;;3.08;2.90;;;;;;;6.89;49.56;100529.00;4459051;32;34465;-71
2022/12/20 11:37:25;;;;;;;1.25;1.25;;;;;;;6.59;49.46;100522.25;4450099;32;34344;-72
2022/12/20 11:39:54;;;;;;;4.30;3.97;;;;;;;6.46;51.24;100518.47;4451235;32;34072;-72
2022/12/20 11:42:32;;;;;;;0.60;0.60;;;;;;;6.33;50.49;100512.09;4455381;32;35414;-71
2022/12/20 11:45:20;;;;;;;3.42;1.87;;;;;;;6.27;51.20;100514.53;4454005;32;34921;-71
2022/12/20 11:48:08;;;;;;;1.73;1.62;;;;;;;6.22;51.41;100517.00;4458489;32;33569;-71
2022/12/20 11:50:55;;;;;;;3.50;3.22;;;;;;;6.94;49.76;100510.12;4469415;32;33948;-71
2022/12/20 11:53:39;;;;;;;0.50;0.50;;;;;;;7.12;49.69;100495.84;4469172;32;35981;-71
2022/12/20 11:56:19;;;;;;;1.83;1.73;;;;;;;7.81;48.45;100507.63;4451454;32;34546;-72
2022/12/20 11:58:51;;;;;;;0.75;0.75;;;;;;;9.19;45.01;100503.84;4439415;32;34171;-72
2022/12/20 12:01:24;;;;;;;3.60;3.30;;;;;;;10.33;41.63;100494.75;4426922;32;32913;-72
2022/12/20 12:04:14;;;;;;;0.60;0.60;;;;;;;9.99;41.57;100488.34;4439948;32;35110;-71
2022/12/20 12:06:46;;;;;;;0.98;0.98;;;;;;;8.88;44.00;100486.97;4454471;32;35072;-72
2022/12/20 12:09:52;;;;;;;2.33;2.15;;;;;;;9.32;43.36;100470.22;4450482;32;34365;-72